sensor_id;sensor_type;location;lat;lon;timestamp;P1;durP1;ratioP1;P2;durP2;ratioP2
14994;SDS011;7593;49.006;8.372;2023-11-21T00:01:41;5.88;;;2.20;;
14994;SDS011;7593;49.006;8.372;2023-11-21T00:04:08;7.20;;;2.30;;
14994;SDS011;7593;49.006;8.372;2023-11-21T00:06:35;7.28;;;2.00;;
14994;SDS011;7593;49.006;8.372;2023-11-21T00:09:01;10.20;;;2.50;;
14994;SDS011;7593;49.006;8.372;2023-11-21T00:11:28;6.32;;;1.92;;
14994;SDS011;7593;49.006;8.372;2023-11-21T00:13:55;6.00;;;1.90;;
14994;SDS011;7593;49.006;8.372;2023-11-21T00:16:22;6.15;;;1.98;;
14994;SDS011;7593;49.006;8.372;2023-11-21T00:18:51;6.82;;;2.00;;
14994;SDS011;7593;49.006;8.372;2023-11-21T00:21:18;4.50;;;1.92;;
14994;SDS011;7593;49.006;8.372;2023-11-21T00:23:45;4.60;;;1.95;;
14994;SDS011;7593;49.006;8.372;2023-11-21T00:26:11;5.20;;;2.10;;
14994;SDS011;7593;49.006;8.372;2023-11-21T00:28:39;7.90;;;2.42;;
14994;SDS011;7593;49.006;8.372;2023-11-21T00:31:06;7.50;;;2.20;;
14994;SDS011;7593;49.006;8.372;2023-11-21T00:33:33;11.38;;;2.55;;
14994;SDS011;7593;49.006;8.372;2023-11-21T00:36:01;6.47;;;2.20;;
14994;SDS011;7593;49.006;8.372;2023-11-21T00:38:28;5.63;;;1.80;;
14994;SDS011;7593;49.006;8.372;2023-11-21T00:40:55;7.22;;;2.67;;
14994;SDS011;7593;49.006;8.372;2023-11-21T00:43:22;6.00;;;2.20;;
14994;SDS011;7593;49.006;8.372;2023-11-21T00:45:49;9.45;;;2.30;;
14994;SDS011;7593;49.006;8.372;2023-11-21T00:48:16;6.22;;;2.03;;
14994;SDS011;7593;49.006;8.372;2023-11-21T00:50:43;7.47;;;2.13;;
14994;SDS011;7593;49.006;8.372;2023-11-21T00:53:11;4.95;;;1.67;;
14994;SDS011;7593;49.006;8.372;2023-11-21T00:55:38;10.80;;;2.13;;
14994;SDS011;7593;49.006;8.372;2023-11-21T00:58:05;6.18;;;1.88;;
14994;SDS011;7593;49.006;8.372;2023-11-21T01:00:32;5.45;;;1.88;;
14994;SDS011;7593;49.006;8.372;2023-11-21T01:02:59;6.55;;;2.10;;
14994;SDS011;7593;49.006;8.372;2023-11-21T01:05:27;5.82;;;2.35;;
14994;SDS011;7593;49.006;8.372;2023-11-21T01:07:54;6.85;;;2.40;;
14994;SDS011;7593;49.006;8.372;2023-11-21T01:10:22;3.38;;;1.88;;
14994;SDS011;7593;49.006;8.372;2023-11-21T01:12:50;8.10;;;2.17;;
14994;SDS011;7593;49.006;8.372;2023-11-21T01:15:16;4.25;;;1.90;;
14994;SDS011;7593;49.006;8.372;2023-11-21T01:17:43;5.22;;;2.08;;
14994;SDS011;7593;49.006;8.372;2023-11-21T01:20:10;7.63;;;2.22;;
14994;SDS011;7593;49.006;8.372;2023-11-21T01:22:37;4.20;;;1.77;;
14994;SDS011;7593;49.006;8.372;2023-11-21T01:25:05;6.05;;;2.03;;
14994;SDS011;7593;49.006;8.372;2023-11-21T01:27:34;6.80;;;2.10;;
14994;SDS011;7593;49.006;8.372;2023-11-21T01:30:01;6.03;;;1.95;;
14994;SDS011;7593;49.006;8.372;2023-11-21T01:32:27;8.07;;;2.17;;
14994;SDS011;7593;49.006;8.372;2023-11-21T01:34:54;5.63;;;2.08;;
14994;SDS011;7593;49.006;8.372;2023-11-21T01:37:21;6.28;;;2.05;;
14994;SDS011;7593;49.006;8.372;2023-11-21T01:39:48;4.13;;;1.83;;
14994;SDS011;7593;49.006;8.372;2023-11-21T01:42:15;6.35;;;1.90;;
14994;SDS011;7593;49.006;8.372;2023-11-21T01:44:43;8.70;;;2.55;;
14994;SDS011;7593;49.006;8.372;2023-11-21T01:47:09;5.53;;;2.20;;
14994;SDS011;7593;49.006;8.372;2023-11-21T01:49:37;4.50;;;2.00;;
14994;SDS011;7593;49.006;8.372;2023-11-21T01:52:04;4.78;;;1.83;;
14994;SDS011;7593;49.006;8.372;2023-11-21T01:54:31;6.28;;;1.80;;
14994;SDS011;7593;49.006;8.372;2023-11-21T01:56:59;7.85;;;2.35;;
14994;SDS011;7593;49.006;8.372;2023-11-21T01:59:29;6.82;;;2.22;;
14994;SDS011;7593;49.006;8.372;2023-11-21T02:02:03;4.68;;;2.00;;
14994;SDS011;7593;49.006;8.372;2023-11-21T02:04:31;6.43;;;2.13;;
14994;SDS011;7593;49.006;8.372;2023-11-21T02:06:59;6.03;;;2.05;;
14994;SDS011;7593;49.006;8.372;2023-11-21T02:09:25;11.10;;;2.00;;
14994;SDS011;7593;49.006;8.372;2023-11-21T02:11:53;5.38;;;1.80;;
14994;SDS011;7593;49.006;8.372;2023-11-21T02:14:20;4.93;;;1.80;;
14994;SDS011;7593;49.006;8.372;2023-11-21T02:16:48;7.60;;;2.08;;
14994;SDS011;7593;49.006;8.372;2023-11-21T02:19:18;5.10;;;1.80;;
14994;SDS011;7593;49.006;8.372;2023-11-21T02:21:47;7.55;;;1.80;;
14994;SDS011;7593;49.006;8.372;2023-11-21T02:24:18;5.63;;;2.05;;
14994;SDS011;7593;49.006;8.372;2023-11-21T02:26:45;5.55;;;1.88;;
14994;SDS011;7593;49.006;8.372;2023-11-21T02:29:12;7.05;;;2.17;;
14994;SDS011;7593;49.006;8.372;2023-11-21T02:31:38;5.63;;;2.00;;
14994;SDS011;7593;49.006;8.372;2023-11-21T02:34:12;5.38;;;1.92;;
14994;SDS011;7593;49.006;8.372;2023-11-21T02:36:39;8.00;;;2.00;;
14994;SDS011;7593;49.006;8.372;2023-11-21T02:39:07;4.72;;;1.92;;
14994;SDS011;7593;49.006;8.372;2023-11-21T02:41:35;6.03;;;2.10;;
14994;SDS011;7593;49.006;8.372;2023-11-21T02:44:03;5.43;;;1.90;;
14994;SDS011;7593;49.006;8.372;2023-11-21T02:46:31;6.13;;;2.20;;
14994;SDS011;7593;49.006;8.372;2023-11-21T02:48:58;5.80;;;2.10;;
14994;SDS011;7593;49.006;8.372;2023-11-21T02:51:25;8.88;;;2.45;;
14994;SDS011;7593;49.006;8.372;2023-11-21T02:53:52;5.40;;;2.00;;
14994;SDS011;7593;49.006;8.372;2023-11-21T02:56:19;5.20;;;2.13;;
14994;SDS011;7593;49.006;8.372;2023-11-21T02:58:47;5.00;;;1.90;;
14994;SDS011;7593;49.006;8.372;2023-11-21T03:01:14;8.35;;;2.28;;
14994;SDS011;7593;49.006;8.372;2023-11-21T03:03:42;5.30;;;1.85;;
14994;SDS011;7593;49.006;8.372;2023-11-21T03:06:08;7.85;;;2.28;;
14994;SDS011;7593;49.006;8.372;2023-11-21T03:08:35;5.25;;;2.03;;
14994;SDS011;7593;49.006;8.372;2023-11-21T03:11:02;7.18;;;2.33;;
14994;SDS011;7593;49.006;8.372;2023-11-21T03:13:29;5.00;;;1.73;;
14994;SDS011;7593;49.006;8.372;2023-11-21T03:15:57;5.82;;;1.88;;
14994;SDS011;7593;49.006;8.372;2023-11-21T03:18:24;5.40;;;2.20;;
14994;SDS011;7593;49.006;8.372;2023-11-21T03:20:51;7.72;;;2.28;;
14994;SDS011;7593;49.006;8.372;2023-11-21T03:23:18;4.55;;;2.08;;
14994;SDS011;7593;49.006;8.372;2023-11-21T03:25:45;8.10;;;2.20;;
14994;SDS011;7593;49.006;8.372;2023-11-21T03:28:12;5.18;;;2.03;;
14994;SDS011;7593;49.006;8.372;2023-11-21T03:30:39;6.20;;;2.20;;
14994;SDS011;7593;49.006;8.372;2023-11-21T03:33:07;6.00;;;2.30;;
14994;SDS011;7593;49.006;8.372;2023-11-21T03:35:33;4.53;;;2.05;;
14994;SDS011;7593;49.006;8.372;2023-11-21T03:38:01;5.13;;;2.17;;
14994;SDS011;7593;49.006;8.372;2023-11-21T03:40:28;4.60;;;2.05;;
14994;SDS011;7593;49.006;8.372;2023-11-21T03:42:56;6.53;;;2.10;;
14994;SDS011;7593;49.006;8.372;2023-11-21T03:45:23;6.25;;;2.30;;
14994;SDS011;7593;49.006;8.372;2023-11-21T03:47:50;7.90;;;2.35;;
14994;SDS011;7593;49.006;8.372;2023-11-21T03:50:18;6.47;;;2.50;;
14994;SDS011;7593;49.006;8.372;2023-11-21T03:52:44;7.65;;;2.17;;
14994;SDS011;7593;49.006;8.372;2023-11-21T03:55:11;4.88;;;1.90;;
14994;SDS011;7593;49.006;8.372;2023-11-21T03:57:38;4.82;;;2.00;;
14994;SDS011;7593;49.006;8.372;2023-11-21T04:00:05;7.20;;;2.03;;
14994;SDS011;7593;49.006;8.372;2023-11-21T04:02:35;6.07;;;2.20;;
14994;SDS011;7593;49.006;8.372;2023-11-21T04:05:02;3.28;;;1.85;;
14994;SDS011;7593;49.006;8.372;2023-11-21T04:07:31;5.38;;;1.85;;
14994;SDS011;7593;49.006;8.372;2023-11-21T04:09:58;3.92;;;1.60;;
14994;SDS011;7593;49.006;8.372;2023-11-21T04:12:25;4.22;;;1.67;;
14994;SDS011;7593;49.006;8.372;2023-11-21T04:14:51;4.40;;;1.80;;
14994;SDS011;7593;49.006;8.372;2023-11-21T04:17:18;4.43;;;1.73;;
14994;SDS011;7593;49.006;8.372;2023-11-21T04:19:45;5.53;;;1.70;;
14994;SDS011;7593;49.006;8.372;2023-11-21T04:22:12;4.85;;;2.03;;
14994;SDS011;7593;49.006;8.372;2023-11-21T04:24:40;6.53;;;2.08;;
14994;SDS011;7593;49.006;8.372;2023-11-21T04:27:07;3.38;;;1.70;;
14994;SDS011;7593;49.006;8.372;2023-11-21T04:29:33;5.55;;;2.03;;
14994;SDS011;7593;49.006;8.372;2023-11-21T04:32:00;9.23;;;2.17;;
14994;SDS011;7593;49.006;8.372;2023-11-21T04:34:27;4.82;;;2.13;;
14994;SDS011;7593;49.006;8.372;2023-11-21T04:36:55;5.40;;;2.17;;
14994;SDS011;7593;49.006;8.372;2023-11-21T04:39:22;4.78;;;1.80;;
14994;SDS011;7593;49.006;8.372;2023-11-21T04:41:51;5.38;;;2.10;;
14994;SDS011;7593;49.006;8.372;2023-11-21T04:44:17;5.10;;;1.90;;
14994;SDS011;7593;49.006;8.372;2023-11-21T04:46:44;4.85;;;2.50;;
14994;SDS011;7593;49.006;8.372;2023-11-21T04:49:11;6.53;;;2.15;;
14994;SDS011;7593;49.006;8.372;2023-11-21T04:51:38;7.90;;;2.22;;
14994;SDS011;7593;49.006;8.372;2023-11-21T04:54:04;5.15;;;2.22;;
14994;SDS011;7593;49.006;8.372;2023-11-21T04:56:31;5.30;;;2.17;;
14994;SDS011;7593;49.006;8.372;2023-11-21T04:59:00;5.32;;;2.50;;
14994;SDS011;7593;49.006;8.372;2023-11-21T05:01:26;5.43;;;2.40;;
14994;SDS011;7593;49.006;8.372;2023-11-21T05:03:53;4.85;;;2.72;;
14994;SDS011;7593;49.006;8.372;2023-11-21T05:06:22;4.28;;;2.58;;
14994;SDS011;7593;49.006;8.372;2023-11-21T05:08:48;5.05;;;2.65;;
14994;SDS011;7593;49.006;8.372;2023-11-21T05:11:22;7.97;;;2.90;;
14994;SDS011;7593;49.006;8.372;2023-11-21T05:13:50;8.77;;;3.00;;
14994;SDS011;7593;49.006;8.372;2023-11-21T05:16:18;8.05;;;3.20;;
14994;SDS011;7593;49.006;8.372;2023-11-21T05:18:47;5.78;;;2.78;;
14994;SDS011;7593;49.006;8.372;2023-11-21T05:21:15;8.00;;;3.13;;
14994;SDS011;7593;49.006;8.372;2023-11-21T05:23:42;7.28;;;3.10;;
14994;SDS011;7593;49.006;8.372;2023-11-21T05:26:09;7.68;;;3.40;;
14994;SDS011;7593;49.006;8.372;2023-11-21T05:28:35;4.82;;;2.95;;
14994;SDS011;7593;49.006;8.372;2023-11-21T05:31:02;5.65;;;3.25;;
14994;SDS011;7593;49.006;8.372;2023-11-21T05:33:31;7.55;;;3.60;;
14994;SDS011;7593;49.006;8.372;2023-11-21T05:35:59;5.32;;;3.30;;
14994;SDS011;7593;49.006;8.372;2023-11-21T05:38:25;7.15;;;3.17;;
14994;SDS011;7593;49.006;8.372;2023-11-21T05:40:52;6.72;;;3.60;;
14994;SDS011;7593;49.006;8.372;2023-11-21T05:43:19;5.45;;;3.50;;
14994;SDS011;7593;49.006;8.372;2023-11-21T05:45:46;5.13;;;3.22;;
14994;SDS011;7593;49.006;8.372;2023-11-21T05:48:13;7.45;;;3.88;;
14994;SDS011;7593;49.006;8.372;2023-11-21T05:50:42;5.07;;;4.03;;
14994;SDS011;7593;49.006;8.372;2023-11-21T05:53:09;8.48;;;4.35;;
14994;SDS011;7593;49.006;8.372;2023-11-21T05:55:36;6.38;;;3.97;;
14994;SDS011;7593;49.006;8.372;2023-11-21T05:58:04;6.07;;;4.38;;
14994;SDS011;7593;49.006;8.372;2023-11-21T06:00:31;6.60;;;4.20;;
14994;SDS011;7593;49.006;8.372;2023-11-21T06:02:58;5.13;;;3.95;;
14994;SDS011;7593;49.006;8.372;2023-11-21T06:05:26;5.47;;;4.00;;
14994;SDS011;7593;49.006;8.372;2023-11-21T06:07:55;5.47;;;4.00;;
14994;SDS011;7593;49.006;8.372;2023-11-21T06:10:23;4.55;;;3.88;;
14994;SDS011;7593;49.006;8.372;2023-11-21T06:12:50;6.43;;;4.03;;
14994;SDS011;7593;49.006;8.372;2023-11-21T06:15:17;6.07;;;3.92;;
14994;SDS011;7593;49.006;8.372;2023-11-21T06:17:47;5.75;;;3.95;;
14994;SDS011;7593;49.006;8.372;2023-11-21T06:20:17;6.07;;;3.72;;
14994;SDS011;7593;49.006;8.372;2023-11-21T06:22:44;6.55;;;3.83;;
14994;SDS011;7593;49.006;8.372;2023-11-21T06:25:14;6.75;;;3.53;;
14994;SDS011;7593;49.006;8.372;2023-11-21T06:27:41;5.00;;;3.75;;
14994;SDS011;7593;49.006;8.372;2023-11-21T06:30:09;4.82;;;3.90;;
14994;SDS011;7593;49.006;8.372;2023-11-21T06:32:37;6.78;;;4.25;;
14994;SDS011;7593;49.006;8.372;2023-11-21T06:35:05;7.20;;;4.47;;
14994;SDS011;7593;49.006;8.372;2023-11-21T06:37:33;5.72;;;4.90;;
14994;SDS011;7593;49.006;8.372;2023-11-21T06:40:00;8.13;;;5.72;;
14994;SDS011;7593;49.006;8.372;2023-11-21T06:42:30;5.70;;;5.10;;
14994;SDS011;7593;49.006;8.372;2023-11-21T06:44:58;9.05;;;6.07;;
14994;SDS011;7593;49.006;8.372;2023-11-21T06:47:28;8.30;;;6.03;;
14994;SDS011;7593;49.006;8.372;2023-11-21T06:49:55;13.20;;;7.57;;
14994;SDS011;7593;49.006;8.372;2023-11-21T06:52:22;15.98;;;11.88;;
14994;SDS011;7593;49.006;8.372;2023-11-21T06:54:49;9.38;;;7.90;;
14994;SDS011;7593;49.006;8.372;2023-11-21T06:57:16;8.23;;;6.43;;
14994;SDS011;7593;49.006;8.372;2023-11-21T06:59:44;9.20;;;6.78;;
14994;SDS011;7593;49.006;8.372;2023-11-21T07:02:11;11.65;;;9.75;;
14994;SDS011;7593;49.006;8.372;2023-11-21T07:04:38;8.50;;;7.38;;
14994;SDS011;7593;49.006;8.372;2023-11-21T07:07:06;9.07;;;6.97;;
14994;SDS011;7593;49.006;8.372;2023-11-21T07:09:32;13.30;;;11.88;;
14994;SDS011;7593;49.006;8.372;2023-11-21T07:12:00;14.32;;;8.60;;
14994;SDS011;7593;49.006;8.372;2023-11-21T07:14:28;11.27;;;8.93;;
14994;SDS011;7593;49.006;8.372;2023-11-21T07:16:56;12.88;;;9.05;;
14994;SDS011;7593;49.006;8.372;2023-11-21T07:19:23;11.18;;;8.00;;
14994;SDS011;7593;49.006;8.372;2023-11-21T07:21:50;12.65;;;8.70;;
14994;SDS011;7593;49.006;8.372;2023-11-21T07:24:17;10.35;;;8.27;;
14994;SDS011;7593;49.006;8.372;2023-11-21T07:26:44;12.40;;;8.20;;
14994;SDS011;7593;49.006;8.372;2023-11-21T07:29:10;10.50;;;7.80;;
14994;SDS011;7593;49.006;8.372;2023-11-21T07:31:38;13.60;;;11.10;;
14994;SDS011;7593;49.006;8.372;2023-11-21T07:34:07;12.00;;;8.90;;
14994;SDS011;7593;49.006;8.372;2023-11-21T07:36:34;11.38;;;8.20;;
14994;SDS011;7593;49.006;8.372;2023-11-21T07:39:01;11.57;;;7.80;;
14994;SDS011;7593;49.006;8.372;2023-11-21T07:41:28;7.47;;;5.55;;
14994;SDS011;7593;49.006;8.372;2023-11-21T07:43:55;7.63;;;5.85;;
14994;SDS011;7593;49.006;8.372;2023-11-21T07:46:22;6.47;;;5.30;;
14994;SDS011;7593;49.006;8.372;2023-11-21T07:48:49;9.88;;;5.70;;
14994;SDS011;7593;49.006;8.372;2023-11-21T07:51:18;7.22;;;5.75;;
14994;SDS011;7593;49.006;8.372;2023-11-21T07:53:45;7.65;;;5.60;;
14994;SDS011;7593;49.006;8.372;2023-11-21T07:56:12;6.18;;;5.53;;
14994;SDS011;7593;49.006;8.372;2023-11-21T07:58:39;9.18;;;5.75;;
14994;SDS011;7593;49.006;8.372;2023-11-21T08:01:05;6.50;;;5.40;;
14994;SDS011;7593;49.006;8.372;2023-11-21T08:03:33;7.75;;;6.03;;
14994;SDS011;7593;49.006;8.372;2023-11-21T08:05:59;6.68;;;5.38;;
14994;SDS011;7593;49.006;8.372;2023-11-21T08:08:29;6.93;;;5.40;;
14994;SDS011;7593;49.006;8.372;2023-11-21T08:10:57;7.45;;;5.65;;
14994;SDS011;7593;49.006;8.372;2023-11-21T08:13:24;8.13;;;6.05;;
14994;SDS011;7593;49.006;8.372;2023-11-21T08:15:53;8.60;;;7.70;;
14994;SDS011;7593;49.006;8.372;2023-11-21T08:18:21;8.52;;;6.88;;
14994;SDS011;7593;49.006;8.372;2023-11-21T08:20:48;8.77;;;7.88;;
14994;SDS011;7593;49.006;8.372;2023-11-21T08:23:14;9.38;;;7.80;;
14994;SDS011;7593;49.006;8.372;2023-11-21T08:25:43;10.52;;;8.02;;
14994;SDS011;7593;49.006;8.372;2023-11-21T08:28:10;9.85;;;8.23;;
14994;SDS011;7593;49.006;8.372;2023-11-21T08:30:37;9.95;;;8.13;;
14994;SDS011;7593;49.006;8.372;2023-11-21T08:33:04;10.50;;;8.07;;
14994;SDS011;7593;49.006;8.372;2023-11-21T08:35:31;13.02;;;8.73;;
14994;SDS011;7593;49.006;8.372;2023-11-21T08:37:57;11.82;;;9.10;;
14994;SDS011;7593;49.006;8.372;2023-11-21T08:40:24;11.52;;;8.80;;
14994;SDS011;7593;49.006;8.372;2023-11-21T08:42:52;11.57;;;9.25;;
14994;SDS011;7593;49.006;8.372;2023-11-21T08:45:20;12.57;;;9.10;;
14994;SDS011;7593;49.006;8.372;2023-11-21T08:47:47;11.18;;;8.85;;
14994;SDS011;7593;49.006;8.372;2023-11-21T08:50:14;10.38;;;8.90;;
14994;SDS011;7593;49.006;8.372;2023-11-21T08:52:41;11.88;;;9.40;;
14994;SDS011;7593;49.006;8.372;2023-11-21T08:55:08;12.75;;;8.60;;
14994;SDS011;7593;49.006;8.372;2023-11-21T08:57:37;11.00;;;8.98;;
14994;SDS011;7593;49.006;8.372;2023-11-21T09:00:07;11.07;;;8.57;;
14994;SDS011;7593;49.006;8.372;2023-11-21T09:02:37;10.07;;;8.27;;
14994;SDS011;7593;49.006;8.372;2023-11-21T09:05:04;9.23;;;7.85;;
14994;SDS011;7593;49.006;8.372;2023-11-21T09:07:32;8.55;;;7.43;;
14994;SDS011;7593;49.006;8.372;2023-11-21T09:09:58;9.68;;;8.13;;
14994;SDS011;7593;49.006;8.372;2023-11-21T09:12:25;9.63;;;8.60;;
14994;SDS011;7593;49.006;8.372;2023-11-21T09:14:52;9.63;;;8.65;;
14994;SDS011;7593;49.006;8.372;2023-11-21T09:17:20;9.48;;;8.55;;
14994;SDS011;7593;49.006;8.372;2023-11-21T09:19:47;9.48;;;8.40;;
14994;SDS011;7593;49.006;8.372;2023-11-21T09:22:16;9.52;;;8.02;;
14994;SDS011;7593;49.006;8.372;2023-11-21T09:24:43;9.20;;;8.23;;
14994;SDS011;7593;49.006;8.372;2023-11-21T09:27:10;9.75;;;8.23;;
14994;SDS011;7593;49.006;8.372;2023-11-21T09:29:37;9.38;;;8.40;;
14994;SDS011;7593;49.006;8.372;2023-11-21T09:32:04;10.45;;;8.10;;
14994;SDS011;7593;49.006;8.372;2023-11-21T09:34:34;9.40;;;8.40;;
14994;SDS011;7593;49.006;8.372;2023-11-21T09:37:03;8.30;;;7.47;;
14994;SDS011;7593;49.006;8.372;2023-11-21T09:39:31;8.48;;;7.57;;
14994;SDS011;7593;49.006;8.372;2023-11-21T09:41:59;9.50;;;8.50;;
14994;SDS011;7593;49.006;8.372;2023-11-21T09:44:36;10.63;;;8.75;;
14994;SDS011;7593;49.006;8.372;2023-11-21T09:47:09;9.35;;;8.45;;
14994;SDS011;7593;49.006;8.372;2023-11-21T09:49:42;9.60;;;8.50;;
14994;SDS011;7593;49.006;8.372;2023-11-21T09:52:13;9.82;;;8.45;;
14994;SDS011;7593;49.006;8.372;2023-11-21T09:54:44;9.57;;;8.15;;
14994;SDS011;7593;49.006;8.372;2023-11-21T09:57:12;10.95;;;8.85;;
14994;SDS011;7593;49.006;8.372;2023-11-21T09:59:40;10.27;;;7.97;;
14994;SDS011;7593;49.006;8.372;2023-11-21T10:02:08;8.82;;;7.93;;
14994;SDS011;7593;49.006;8.372;2023-11-21T10:04:38;8.90;;;7.95;;
14994;SDS011;7593;49.006;8.372;2023-11-21T10:07:06;9.88;;;7.22;;
14994;SDS011;7593;49.006;8.372;2023-11-21T10:09:34;7.68;;;6.80;;
14994;SDS011;7593;49.006;8.372;2023-11-21T10:12:03;10.55;;;8.60;;
14994;SDS011;7593;49.006;8.372;2023-11-21T10:14:33;9.90;;;8.15;;
14994;SDS011;7593;49.006;8.372;2023-11-21T10:17:02;8.10;;;7.30;;
14994;SDS011;7593;49.006;8.372;2023-11-21T10:19:30;8.20;;;7.25;;
14994;SDS011;7593;49.006;8.372;2023-11-21T10:21:57;8.68;;;6.97;;
14994;SDS011;7593;49.006;8.372;2023-11-21T10:24:27;8.90;;;6.25;;
14994;SDS011;7593;49.006;8.372;2023-11-21T10:26:54;9.68;;;5.80;;
14994;SDS011;7593;49.006;8.372;2023-11-21T10:29:21;6.65;;;5.97;;
14994;SDS011;7593;49.006;8.372;2023-11-21T10:31:48;7.32;;;5.75;;
14994;SDS011;7593;49.006;8.372;2023-11-21T10:34:16;6.45;;;5.85;;
14994;SDS011;7593;49.006;8.372;2023-11-21T10:36:44;6.18;;;5.57;;
14994;SDS011;7593;49.006;8.372;2023-11-21T10:39:13;6.10;;;5.47;;
14994;SDS011;7593;49.006;8.372;2023-11-21T10:41:44;6.28;;;5.57;;
14994;SDS011;7593;49.006;8.372;2023-11-21T10:44:13;7.80;;;6.45;;
14994;SDS011;7593;49.006;8.372;2023-11-21T10:46:45;7.40;;;5.40;;
14994;SDS011;7593;49.006;8.372;2023-11-21T10:49:15;6.28;;;5.68;;
14994;SDS011;7593;49.006;8.372;2023-11-21T10:51:43;7.18;;;5.55;;
14994;SDS011;7593;49.006;8.372;2023-11-21T10:54:10;7.40;;;5.80;;
14994;SDS011;7593;49.006;8.372;2023-11-21T10:56:37;7.93;;;5.70;;
14994;SDS011;7593;49.006;8.372;2023-11-21T10:59:07;8.75;;;5.88;;
14994;SDS011;7593;49.006;8.372;2023-11-21T11:01:36;6.25;;;5.65;;
14994;SDS011;7593;49.006;8.372;2023-11-21T11:04:03;6.13;;;5.53;;
14994;SDS011;7593;49.006;8.372;2023-11-21T11:06:39;6.55;;;5.50;;
14994;SDS011;7593;49.006;8.372;2023-11-21T11:09:07;8.73;;;6.13;;
14994;SDS011;7593;49.006;8.372;2023-11-21T11:11:38;6.32;;;5.72;;
14994;SDS011;7593;49.006;8.372;2023-11-21T11:14:07;7.97;;;5.80;;
14994;SDS011;7593;49.006;8.372;2023-11-21T11:16:36;10.38;;;6.03;;
14994;SDS011;7593;49.006;8.372;2023-11-21T11:19:06;7.32;;;6.03;;
14994;SDS011;7593;49.006;8.372;2023-11-21T11:21:35;6.30;;;5.70;;
14994;SDS011;7593;49.006;8.372;2023-11-21T11:24:21;7.97;;;6.05;;
14994;SDS011;7593;49.006;8.372;2023-11-21T11:27:09;7.07;;;6.30;;
14994;SDS011;7593;49.006;8.372;2023-11-21T11:29:49;6.03;;;5.40;;
14994;SDS011;7593;49.006;8.372;2023-11-21T11:32:25;5.80;;;5.30;;
14994;SDS011;7593;49.006;8.372;2023-11-21T11:35:01;7.35;;;5.72;;
14994;SDS011;7593;49.006;8.372;2023-11-21T11:37:33;7.13;;;6.05;;
14994;SDS011;7593;49.006;8.372;2023-11-21T11:40:00;6.72;;;6.03;;
14994;SDS011;7593;49.006;8.372;2023-11-21T11:42:28;7.00;;;6.20;;
14994;SDS011;7593;49.006;8.372;2023-11-21T11:44:57;6.70;;;6.10;;
14994;SDS011;7593;49.006;8.372;2023-11-21T11:47:24;7.10;;;6.07;;
14994;SDS011;7593;49.006;8.372;2023-11-21T11:49:58;7.22;;;6.43;;
14994;SDS011;7593;49.006;8.372;2023-11-21T11:52:33;6.63;;;6.03;;
14994;SDS011;7593;49.006;8.372;2023-11-21T11:55:02;7.03;;;6.32;;
14994;SDS011;7593;49.006;8.372;2023-11-21T11:57:29;7.03;;;6.05;;
14994;SDS011;7593;49.006;8.372;2023-11-21T12:00:08;7.28;;;5.93;;
14994;SDS011;7593;49.006;8.372;2023-11-21T12:02:42;9.25;;;6.75;;
14994;SDS011;7593;49.006;8.372;2023-11-21T12:05:11;7.72;;;6.40;;
14994;SDS011;7593;49.006;8.372;2023-11-21T12:07:46;7.40;;;6.65;;
14994;SDS011;7593;49.006;8.372;2023-11-21T12:10:14;6.47;;;5.88;;
14994;SDS011;7593;49.006;8.372;2023-11-21T12:12:43;6.63;;;6.03;;
14994;SDS011;7593;49.006;8.372;2023-11-21T12:15:15;6.90;;;6.15;;
14994;SDS011;7593;49.006;8.372;2023-11-21T12:17:43;6.85;;;5.65;;
14994;SDS011;7593;49.006;8.372;2023-11-21T12:20:10;6.13;;;5.53;;
14994;SDS011;7593;49.006;8.372;2023-11-21T12:22:42;6.57;;;5.55;;
14994;SDS011;7593;49.006;8.372;2023-11-21T12:25:12;6.78;;;6.07;;
14994;SDS011;7593;49.006;8.372;2023-11-21T12:27:41;7.10;;;5.80;;
14994;SDS011;7593;49.006;8.372;2023-11-21T12:30:09;6.18;;;5.57;;
14994;SDS011;7593;49.006;8.372;2023-11-21T12:32:40;6.75;;;5.20;;
14994;SDS011;7593;49.006;8.372;2023-11-21T12:35:07;6.35;;;5.75;;
14994;SDS011;7593;49.006;8.372;2023-11-21T12:37:35;6.68;;;5.55;;
14994;SDS011;7593;49.006;8.372;2023-11-21T12:40:03;6.35;;;5.75;;
14994;SDS011;7593;49.006;8.372;2023-11-21T12:42:32;6.55;;;5.95;;
14994;SDS011;7593;49.006;8.372;2023-11-21T12:45:09;7.00;;;6.30;;
14994;SDS011;7593;49.006;8.372;2023-11-21T12:47:46;8.98;;;6.53;;
14994;SDS011;7593;49.006;8.372;2023-11-21T12:50:14;6.95;;;6.25;;
14994;SDS011;7593;49.006;8.372;2023-11-21T12:52:45;6.25;;;5.65;;
14994;SDS011;7593;49.006;8.372;2023-11-21T12:55:13;6.18;;;5.47;;
14994;SDS011;7593;49.006;8.372;2023-11-21T12:57:42;6.47;;;5.65;;
14994;SDS011;7593;49.006;8.372;2023-11-21T13:00:10;8.18;;;6.00;;
14994;SDS011;7593;49.006;8.372;2023-11-21T13:02:52;6.18;;;5.57;;
14994;SDS011;7593;49.006;8.372;2023-11-21T13:05:25;6.35;;;5.75;;
14994;SDS011;7593;49.006;8.372;2023-11-21T13:07:53;8.43;;;5.75;;
14994;SDS011;7593;49.006;8.372;2023-11-21T13:10:23;6.15;;;5.65;;
14994;SDS011;7593;49.006;8.372;2023-11-21T13:12:54;8.00;;;6.45;;
14994;SDS011;7593;49.006;8.372;2023-11-21T13:15:25;6.80;;;6.20;;
14994;SDS011;7593;49.006;8.372;2023-11-21T13:17:53;7.07;;;5.68;;
14994;SDS011;7593;49.006;8.372;2023-11-21T13:20:22;6.00;;;5.35;;
14994;SDS011;7593;49.006;8.372;2023-11-21T13:22:50;5.45;;;4.95;;
14994;SDS011;7593;49.006;8.372;2023-11-21T13:25:19;6.30;;;4.88;;
14994;SDS011;7593;49.006;8.372;2023-11-21T13:27:47;5.30;;;4.80;;
14994;SDS011;7593;49.006;8.372;2023-11-21T13:30:15;5.72;;;5.20;;
14994;SDS011;7593;49.006;8.372;2023-11-21T13:32:43;5.18;;;4.68;;
14994;SDS011;7593;49.006;8.372;2023-11-21T13:35:13;6.07;;;5.40;;
14994;SDS011;7593;49.006;8.372;2023-11-21T13:37:48;4.97;;;4.47;;
14994;SDS011;7593;49.006;8.372;2023-11-21T13:40:21;5.15;;;4.00;;
14994;SDS011;7593;49.006;8.372;2023-11-21T13:42:52;6.43;;;4.43;;
14994;SDS011;7593;49.006;8.372;2023-11-21T13:45:24;5.03;;;4.53;;
14994;SDS011;7593;49.006;8.372;2023-11-21T13:47:53;4.88;;;4.40;;
14994;SDS011;7593;49.006;8.372;2023-11-21T13:50:24;4.88;;;4.43;;
14994;SDS011;7593;49.006;8.372;2023-11-21T13:52:56;6.15;;;5.10;;
14994;SDS011;7593;49.006;8.372;2023-11-21T13:55:24;5.30;;;4.13;;
14994;SDS011;7593;49.006;8.372;2023-11-21T13:57:51;4.90;;;4.50;;
14994;SDS011;7593;49.006;8.372;2023-11-21T14:00:18;5.18;;;4.68;;
14994;SDS011;7593;49.006;8.372;2023-11-21T14:03:11;7.68;;;5.43;;
14994;SDS011;7593;49.006;8.372;2023-11-21T14:05:47;5.32;;;4.82;;
14994;SDS011;7593;49.006;8.372;2023-11-21T14:08:16;4.85;;;4.45;;
14994;SDS011;7593;49.006;8.372;2023-11-21T14:10:45;5.63;;;4.40;;
14994;SDS011;7593;49.006;8.372;2023-11-21T14:13:15;5.20;;;4.50;;
14994;SDS011;7593;49.006;8.372;2023-11-21T14:15:42;4.75;;;4.15;;
14994;SDS011;7593;49.006;8.372;2023-11-21T14:18:11;4.65;;;3.83;;
14994;SDS011;7593;49.006;8.372;2023-11-21T14:20:41;6.72;;;4.22;;
14994;SDS011;7593;49.006;8.372;2023-11-21T14:23:10;5.68;;;4.05;;
14994;SDS011;7593;49.006;8.372;2023-11-21T14:25:37;7.40;;;5.35;;
14994;SDS011;7593;49.006;8.372;2023-11-21T14:28:07;6.50;;;5.90;;
14994;SDS011;7593;49.006;8.372;2023-11-21T14:30:36;6.13;;;4.70;;
14994;SDS011;7593;49.006;8.372;2023-11-21T14:33:04;6.43;;;4.68;;
14994;SDS011;7593;49.006;8.372;2023-11-21T14:35:33;6.03;;;4.45;;
14994;SDS011;7593;49.006;8.372;2023-11-21T14:38:00;6.85;;;4.43;;
14994;SDS011;7593;49.006;8.372;2023-11-21T14:40:31;5.28;;;4.72;;
14994;SDS011;7593;49.006;8.372;2023-11-21T14:43:00;5.47;;;4.53;;
14994;SDS011;7593;49.006;8.372;2023-11-21T14:45:27;5.15;;;4.32;;
14994;SDS011;7593;49.006;8.372;2023-11-21T14:47:55;4.78;;;4.10;;
14994;SDS011;7593;49.006;8.372;2023-11-21T14:50:31;7.35;;;4.53;;
14994;SDS011;7593;49.006;8.372;2023-11-21T14:53:16;5.97;;;4.30;;
14994;SDS011;7593;49.006;8.372;2023-11-21T14:56:04;5.88;;;4.38;;
14994;SDS011;7593;49.006;8.372;2023-11-21T14:58:32;7.80;;;4.50;;
14994;SDS011;7593;49.006;8.372;2023-11-21T15:01:00;6.45;;;4.43;;
14994;SDS011;7593;49.006;8.372;2023-11-21T15:03:26;5.32;;;4.80;;
14994;SDS011;7593;49.006;8.372;2023-11-21T15:06:13;6.20;;;5.13;;
14994;SDS011;7593;49.006;8.372;2023-11-21T15:08:44;7.07;;;5.03;;